sensor_id;sensor_type;location;lat;lon;timestamp;pressure;altitude;pressure_sealevel;temperature;humidity
53889;BME280;41337;51.400;-2.342;2022-07-05T00:04:15;101989.88;;;11.60;100.00
53889;BME280;41337;51.400;-2.342;2022-07-05T00:09:16;101983.19;;;11.26;100.00
53889;BME280;41337;51.400;-2.342;2022-07-05T00:14:17;101988.91;;;11.06;100.00
53889;BME280;41337;51.400;-2.342;2022-07-05T00:19:18;101989.88;;;11.11;100.00
53889;BME280;41337;51.400;-2.342;2022-07-05T00:24:19;101992.88;;;10.86;100.00
53889;BME280;41337;51.400;-2.342;2022-07-05T00:29:19;101979.91;;;10.89;100.00
53889;BME280;41337;51.400;-2.342;2022-07-05T00:34:20;102000.19;;;10.62;100.00
53889;BME280;41337;51.400;-2.342;2022-07-05T00:39:21;101996.69;;;10.60;100.00
53889;BME280;41337;51.400;-2.342;2022-07-05T00:44:34;101990.56;;;10.58;100.00
53889;BME280;41337;51.400;-2.342;2022-07-05T00:49:42;101991.94;;;10.42;100.00
53889;BME280;41337;51.400;-2.342;2022-07-05T00:54:43;101989.16;;;10.33;100.00
53889;BME280;41337;51.400;-2.342;2022-07-05T00:59:44;101993.38;;;10.29;100.00
53889;BME280;41337;51.400;-2.342;2022-07-05T01:04:45;101997.72;;;10.29;100.00
53889;BME280;41337;51.400;-2.342;2022-07-05T01:09:46;101996.72;;;10.24;100.00
53889;BME280;41337;51.400;-2.342;2022-07-05T01:14:53;101994.13;;;10.24;100.00
53889;BME280;41337;51.400;-2.342;2022-07-05T01:19:55;102008.06;;;10.26;100.00
53889;BME280;41337;51.400;-2.342;2022-07-05T01:24:56;102006.31;;;10.26;100.00
53889;BME280;41337;51.400;-2.342;2022-07-05T01:29:57;102001.09;;;10.25;100.00
53889;BME280;41337;51.400;-2.342;2022-07-05T01:34:58;101997.84;;;9.97;100.00
53889;BME280;41337;51.400;-2.342;2022-07-05T01:40:05;101991.63;;;9.92;100.00
53889;BME280;41337;51.400;-2.342;2022-07-05T01:45:07;101998.69;;;9.96;100.00
53889;BME280;41337;51.400;-2.342;2022-07-05T01:50:09;101997.06;;;10.01;100.00
53889;BME280;41337;51.400;-2.342;2022-07-05T01:55:10;101997.63;;;9.88;100.00
53889;BME280;41337;51.400;-2.342;2022-07-05T02:00:11;101993.03;;;9.43;100.00
53889;BME280;41337;51.400;-2.342;2022-07-05T02:05:12;101990.25;;;9.36;100.00
53889;BME280;41337;51.400;-2.342;2022-07-05T02:10:13;101994.09;;;9.51;100.00
53889;BME280;41337;51.400;-2.342;2022-07-05T02:15:20;101993.94;;;9.45;100.00
53889;BME280;41337;51.400;-2.342;2022-07-05T02:20:21;101988.09;;;9.20;100.00
53889;BME280;41337;51.400;-2.342;2022-07-05T02:25:22;101984.38;;;9.10;100.00
53889;BME280;41337;51.400;-2.342;2022-07-05T02:30:23;101979.22;;;9.12;100.00
53889;BME280;41337;51.400;-2.342;2022-07-05T02:35:24;101982.22;;;9.27;100.00
53889;BME280;41337;51.400;-2.342;2022-07-05T02:40:24;101990.59;;;9.17;100.00
53889;BME280;41337;51.400;-2.342;2022-07-05T02:45:25;101972.88;;;9.02;100.00
53889;BME280;41337;51.400;-2.342;2022-07-05T02:50:26;101963.72;;;8.83;100.00
53889;BME280;41337;51.400;-2.342;2022-07-05T02:55:27;101967.13;;;8.82;100.00
53889;BME280;41337;51.400;-2.342;2022-07-05T03:00:28;101973.28;;;8.86;100.00
53889;BME280;41337;51.400;-2.342;2022-07-05T03:05:38;101967.13;;;8.82;100.00
53889;BME280;41337;51.400;-2.342;2022-07-05T03:10:39;101963.75;;;8.85;100.00
53889;BME280;41337;51.400;-2.342;2022-07-05T03:15:40;101963.81;;;8.86;100.00
53889;BME280;41337;51.400;-2.342;2022-07-05T03:20:41;101964.94;;;8.66;100.00
53889;BME280;41337;51.400;-2.342;2022-07-05T03:25:41;101965.66;;;8.60;100.00
53889;BME280;41337;51.400;-2.342;2022-07-05T03:30:42;101981.31;;;8.63;100.00
53889;BME280;41337;51.400;-2.342;2022-07-05T03:35:43;101989.19;;;8.66;100.00
53889;BME280;41337;51.400;-2.342;2022-07-05T03:40:44;101995.63;;;8.79;100.00
53889;BME280;41337;51.400;-2.342;2022-07-05T03:45:45;101984.94;;;8.68;100.00
53889;BME280;41337;51.400;-2.342;2022-07-05T03:50:46;101978.94;;;8.71;100.00
53889;BME280;41337;51.400;-2.342;2022-07-05T03:55:47;101987.00;;;8.80;100.00
53889;BME280;41337;51.400;-2.342;2022-07-05T04:00:48;101982.31;;;8.67;100.00
53889;BME280;41337;51.400;-2.342;2022-07-05T04:05:49;101995.97;;;8.61;100.00
53889;BME280;41337;51.400;-2.342;2022-07-05T04:10:49;101997.47;;;8.53;100.00
53889;BME280;41337;51.400;-2.342;2022-07-05T04:15:50;102000.06;;;8.53;100.00
53889;BME280;41337;51.400;-2.342;2022-07-05T04:20:57;101999.19;;;8.52;100.00
53889;BME280;41337;51.400;-2.342;2022-07-05T04:26:00;102013.09;;;8.54;100.00
53889;BME280;41337;51.400;-2.342;2022-07-05T04:31:01;102015.59;;;8.51;100.00
53889;BME280;41337;51.400;-2.342;2022-07-05T04:36:02;102011.31;;;8.53;100.00
53889;BME280;41337;51.400;-2.342;2022-07-05T04:41:03;102020.06;;;8.55;100.00
53889;BME280;41337;51.400;-2.342;2022-07-05T04:46:03;102020.25;;;8.61;100.00
53889;BME280;41337;51.400;-2.342;2022-07-05T04:51:04;102019.41;;;8.62;100.00
53889;BME280;41337;51.400;-2.342;2022-07-05T04:56:05;102017.78;;;8.66;100.00
53889;BME280;41337;51.400;-2.342;2022-07-05T05:01:12;102027.66;;;8.78;100.00
53889;BME280;41337;51.400;-2.342;2022-07-05T05:06:13;102023.81;;;8.95;100.00
53889;BME280;41337;51.400;-2.342;2022-07-05T05:11:14;102033.06;;;9.16;100.00
53889;BME280;41337;51.400;-2.342;2022-07-05T05:16:15;102030.25;;;9.40;100.00
53889;BME280;41337;51.400;-2.342;2022-07-05T05:21:16;102037.66;;;9.58;100.00
53889;BME280;41337;51.400;-2.342;2022-07-05T05:26:17;102027.91;;;9.84;100.00
53889;BME280;41337;51.400;-2.342;2022-07-05T05:31:18;102024.44;;;9.85;100.00
53889;BME280;41337;51.400;-2.342;2022-07-05T05:36:19;102024.88;;;10.02;100.00
53889;BME280;41337;51.400;-2.342;2022-07-05T05:41:20;102035.56;;;10.15;100.00
53889;BME280;41337;51.400;-2.342;2022-07-05T05:46:21;102028.94;;;10.27;100.00
53889;BME280;41337;51.400;-2.342;2022-07-05T05:51:22;102026.03;;;10.52;100.00
53889;BME280;41337;51.400;-2.342;2022-07-05T05:56:22;102030.00;;;10.75;100.00
53889;BME280;41337;51.400;-2.342;2022-07-05T06:01:23;102049.28;;;10.83;100.00
53889;BME280;41337;51.400;-2.342;2022-07-05T06:06:24;102047.78;;;10.95;100.00
53889;BME280;41337;51.400;-2.342;2022-07-05T06:11:25;102048.84;;;11.05;100.00
53889;BME280;41337;51.400;-2.342;2022-07-05T06:16:26;102046.69;;;11.28;100.00
53889;BME280;41337;51.400;-2.342;2022-07-05T06:21:27;102049.06;;;11.61;100.00
53889;BME280;41337;51.400;-2.342;2022-07-05T06:26:28;102036.34;;;11.81;100.00
53889;BME280;41337;51.400;-2.342;2022-07-05T06:31:29;102033.09;;;11.94;100.00
53889;BME280;41337;51.400;-2.342;2022-07-05T06:36:29;102028.03;;;12.04;100.00
53889;BME280;41337;51.400;-2.342;2022-07-05T06:41:30;102026.47;;;12.15;100.00
53889;BME280;41337;51.400;-2.342;2022-07-05T06:46:31;102028.47;;;12.33;100.00
53889;BME280;41337;51.400;-2.342;2022-07-05T06:51:32;102012.19;;;12.53;100.00
53889;BME280;41337;51.400;-2.342;2022-07-05T06:56:32;102029.00;;;12.73;100.00
53889;BME280;41337;51.400;-2.342;2022-07-05T07:01:33;102035.34;;;12.92;100.00
53889;BME280;41337;51.400;-2.342;2022-07-05T07:06:34;102046.00;;;13.06;100.00
53889;BME280;41337;51.400;-2.342;2022-07-05T07:11:35;102056.69;;;13.26;100.00
53889;BME280;41337;51.400;-2.342;2022-07-05T07:16:36;102064.84;;;13.52;100.00
53889;BME280;41337;51.400;-2.342;2022-07-05T07:21:37;102070.22;;;13.66;100.00
53889;BME280;41337;51.400;-2.342;2022-07-05T07:26:38;102076.31;;;13.65;100.00
53889;BME280;41337;51.400;-2.342;2022-07-05T07:31:58;102085.19;;;13.78;100.00
53889;BME280;41337;51.400;-2.342;2022-07-05T07:37:03;102084.47;;;13.96;100.00
53889;BME280;41337;51.400;-2.342;2022-07-05T07:42:05;102095.03;;;14.08;100.00
53889;BME280;41337;51.400;-2.342;2022-07-05T07:47:06;102105.66;;;14.27;100.00
53889;BME280;41337;51.400;-2.342;2022-07-05T07:52:07;102117.16;;;14.43;100.00
53889;BME280;41337;51.400;-2.342;2022-07-05T07:57:08;102123.44;;;14.62;100.00
53889;BME280;41337;51.400;-2.342;2022-07-05T08:02:09;102130.69;;;15.06;100.00
53889;BME280;41337;51.400;-2.342;2022-07-05T08:07:10;102136.09;;;15.49;100.00
53889;BME280;41337;51.400;-2.342;2022-07-05T08:12:12;102142.28;;;15.71;100.00
53889;BME280;41337;51.400;-2.342;2022-07-05T08:17:13;102146.75;;;16.08;100.00
53889;BME280;41337;51.400;-2.342;2022-07-05T08:22:14;102158.13;;;16.51;100.00
53889;BME280;41337;51.400;-2.342;2022-07-05T08:27:15;102152.84;;;16.78;100.00
53889;BME280;41337;51.400;-2.342;2022-07-05T08:32:24;102171.16;;;17.21;100.00
53889;BME280;41337;51.400;-2.342;2022-07-05T08:37:26;102163.22;;;17.33;100.00
53889;BME280;41337;51.400;-2.342;2022-07-05T08:42:32;102167.56;;;17.43;100.00
53889;BME280;41337;51.400;-2.342;2022-07-05T08:47:33;102178.94;;;17.47;100.00
53889;BME280;41337;51.400;-2.342;2022-07-05T08:52:35;102185.84;;;17.73;100.00
53889;BME280;41337;51.400;-2.342;2022-07-05T08:57:36;102177.88;;;17.87;100.00
53889;BME280;41337;51.400;-2.342;2022-07-05T09:02:38;102174.31;;;18.00;100.00
53889;BME280;41337;51.400;-2.342;2022-07-05T09:07:47;102174.16;;;18.22;100.00
53889;BME280;41337;51.400;-2.342;2022-07-05T09:12:54;102176.53;;;18.49;100.00
53889;BME280;41337;51.400;-2.342;2022-07-05T09:17:55;102167.56;;;18.70;100.00
53889;BME280;41337;51.400;-2.342;2022-07-05T09:22:56;102175.16;;;19.03;100.00
53889;BME280;41337;51.400;-2.342;2022-07-05T09:27:58;102177.50;;;19.31;93.40
53889;BME280;41337;51.400;-2.342;2022-07-05T09:38:20;102187.75;;;19.54;88.93
53889;BME280;41337;51.400;-2.342;2022-07-05T09:43:26;102186.63;;;19.73;87.20
53889;BME280;41337;51.400;-2.342;2022-07-05T09:48:29;102192.47;;;19.95;86.55
53889;BME280;41337;51.400;-2.342;2022-07-05T09:53:57;102193.97;;;20.13;87.33
53889;BME280;41337;51.400;-2.342;2022-07-05T09:59:16;102190.09;;;20.34;87.83
53889;BME280;41337;51.400;-2.342;2022-07-05T10:04:23;102196.81;;;20.56;83.00
53889;BME280;41337;51.400;-2.342;2022-07-05T10:09:24;102202.84;;;20.65;82.31
53889;BME280;41337;51.400;-2.342;2022-07-05T10:14:26;102201.34;;;20.49;84.19
53889;BME280;41337;51.400;-2.342;2022-07-05T10:19:37;102211.69;;;20.61;83.62
53889;BME280;41337;51.400;-2.342;2022-07-05T10:24:44;102213.94;;;20.34;83.19
53889;BME280;41337;51.400;-2.342;2022-07-05T10:29:46;102204.69;;;20.59;82.29
53889;BME280;41337;51.400;-2.342;2022-07-05T10:34:52;102207.56;;;20.45;83.26
53889;BME280;41337;51.400;-2.342;2022-07-05T10:39:58;102197.53;;;20.67;81.02
53889;BME280;41337;51.400;-2.342;2022-07-05T10:44:59;102184.88;;;20.83;82.13
53889;BME280;41337;51.400;-2.342;2022-07-05T10:50:05;102207.28;;;21.12;80.01
53889;BME280;41337;51.400;-2.342;2022-07-05T10:55:22;102208.31;;;21.04;77.58
53889;BME280;41337;51.400;-2.342;2022-07-05T11:00:23;102200.38;;;21.04;80.00
53889;BME280;41337;51.400;-2.342;2022-07-05T11:05:24;102205.38;;;21.18;77.00
53889;BME280;41337;51.400;-2.342;2022-07-05T11:10:26;102207.84;;;21.27;73.78
53889;BME280;41337;51.400;-2.342;2022-07-05T11:15:27;102207.38;;;21.52;70.71
53889;BME280;41337;51.400;-2.342;2022-07-05T11:20:29;102208.56;;;21.36;74.20
53889;BME280;41337;51.400;-2.342;2022-07-05T11:25:44;102215.25;;;21.55;76.10
53889;BME280;41337;51.400;-2.342;2022-07-05T11:30:56;102211.09;;;21.84;72.70
53889;BME280;41337;51.400;-2.342;2022-07-05T11:35:58;102214.25;;;22.00;70.25
53889;BME280;41337;51.400;-2.342;2022-07-05T11:41:14;102213.59;;;22.29;69.48
53889;BME280;41337;51.400;-2.342;2022-07-05T11:46:18;102215.97;;;22.42;67.35
53889;BME280;41337;51.400;-2.342;2022-07-05T11:51:23;102214.69;;;22.57;67.68
53889;BME280;41337;51.400;-2.342;2022-07-05T11:56:24;102214.81;;;22.52;65.94
53889;BME280;41337;51.400;-2.342;2022-07-05T12:01:25;102218.13;;;22.60;69.26
53889;BME280;41337;51.400;-2.342;2022-07-05T12:06:25;102211.31;;;22.50;67.17
53889;BME280;41337;51.400;-2.342;2022-07-05T12:11:26;102210.94;;;22.29;68.26
53889;BME280;41337;51.400;-2.342;2022-07-05T12:16:45;102216.81;;;22.42;70.15
53889;BME280;41337;51.400;-2.342;2022-07-05T12:21:53;102205.63;;;22.29;72.17
53889;BME280;41337;51.400;-2.342;2022-07-05T12:26:55;102215.31;;;22.32;73.36
53889;BME280;41337;51.400;-2.342;2022-07-05T12:32:06;102207.69;;;22.52;72.54
53889;BME280;41337;51.400;-2.342;2022-07-05T12:37:26;102207.31;;;22.68;72.58
53889;BME280;41337;51.400;-2.342;2022-07-05T12:42:41;102201.09;;;23.02;68.22
53889;BME280;41337;51.400;-2.342;2022-07-05T12:47:52;102203.22;;;22.89;69.35
53889;BME280;41337;51.400;-2.342;2022-07-05T12:53:09;102201.78;;;23.10;70.13
53889;BME280;41337;51.400;-2.342;2022-07-05T12:58:29;102207.22;;;23.37;68.48
53889;BME280;41337;51.400;-2.342;2022-07-05T13:04:02;102208.44;;;23.25;66.44
53889;BME280;41337;51.400;-2.342;2022-07-05T13:09:07;102208.13;;;23.03;68.27
53889;BME280;41337;51.400;-2.342;2022-07-05T13:14:08;102212.69;;;23.31;64.19
53889;BME280;41337;51.400;-2.342;2022-07-05T13:19:12;102208.56;;;22.87;68.99
53889;BME280;41337;51.400;-2.342;2022-07-05T13:24:16;102216.78;;;22.78;72.87
53889;BME280;41337;51.400;-2.342;2022-07-05T13:29:17;102212.94;;;22.55;74.90
53889;BME280;41337;51.400;-2.342;2022-07-05T13:34:18;102215.31;;;22.32;79.69
53889;BME280;41337;51.400;-2.342;2022-07-05T13:39:20;102208.72;;;22.48;75.86
53889;BME280;41337;51.400;-2.342;2022-07-05T13:44:28;102209.41;;;22.55;78.11
53889;BME280;41337;51.400;-2.342;2022-07-05T13:49:29;102215.06;;;23.10;72.50
53889;BME280;41337;51.400;-2.342;2022-07-05T13:54:31;102216.88;;;23.08;71.53
53889;BME280;41337;51.400;-2.342;2022-07-05T13:59:38;102205.31;;;22.76;77.03
53889;BME280;41337;51.400;-2.342;2022-07-05T14:04:39;102209.19;;;22.97;73.36
53889;BME280;41337;51.400;-2.342;2022-07-05T14:09:39;102220.41;;;22.76;75.48
53889;BME280;41337;51.400;-2.342;2022-07-05T14:14:40;102207.84;;;22.48;81.61
53889;BME280;41337;51.400;-2.342;2022-07-05T14:19:41;102216.25;;;22.64;80.56
53889;BME280;41337;51.400;-2.342;2022-07-05T14:24:42;102216.84;;;22.75;81.97
53889;BME280;41337;51.400;-2.342;2022-07-05T14:29:42;102204.56;;;23.04;77.86
53889;BME280;41337;51.400;-2.342;2022-07-05T14:34:49;102202.72;;;23.06;81.28
53889;BME280;41337;51.400;-2.342;2022-07-05T14:39:50;102194.81;;;23.36;77.64
53889;BME280;41337;51.400;-2.342;2022-07-05T14:44:51;102196.41;;;23.43;78.99
53889;BME280;41337;51.400;-2.342;2022-07-05T14:49:53;102195.59;;;23.41;77.91
53889;BME280;41337;51.400;-2.342;2022-07-05T14:54:57;102192.91;;;23.71;75.22
53889;BME280;41337;51.400;-2.342;2022-07-05T14:59:58;102198.19;;;23.72;75.17
53889;BME280;41337;51.400;-2.342;2022-07-05T15:04:59;102198.13;;;23.44;77.69
53889;BME280;41337;51.400;-2.342;2022-07-05T15:10:00;102188.13;;;23.82;78.40
53889;BME280;41337;51.400;-2.342;2022-07-05T15:15:01;102190.84;;;24.09;74.33
53889;BME280;41337;51.400;-2.342;2022-07-05T15:20:02;102191.34;;;23.93;72.28
53889;BME280;41337;51.400;-2.342;2022-07-05T15:25:03;102201.41;;;23.82;71.46
53889;BME280;41337;51.400;-2.342;2022-07-05T15:30:11;102206.22;;;23.41;79.22
53889;BME280;41337;51.400;-2.342;2022-07-05T15:35:13;102209.88;;;23.37;82.38
53889;BME280;41337;51.400;-2.342;2022-07-05T15:40:16;102211.84;;;23.30;77.75
53889;BME280;41337;51.400;-2.342;2022-07-05T15:45:17;102211.88;;;22.96;84.41
53889;BME280;41337;51.400;-2.342;2022-07-05T15:50:18;102224.25;;;22.97;85.35
53889;BME280;41337;51.400;-2.342;2022-07-05T15:55:19;102218.47;;;22.82;86.57
53889;BME280;41337;51.400;-2.342;2022-07-05T16:00:21;102220.59;;;22.68;87.11
53889;BME280;41337;51.400;-2.342;2022-07-05T16:05:21;102227.06;;;22.58;89.06
53889;BME280;41337;51.400;-2.342;2022-07-05T16:10:22;102224.28;;;23.30;86.63
53889;BME280;41337;51.400;-2.342;2022-07-05T16:15:29;102225.72;;;23.70;81.75
53889;BME280;41337;51.400;-2.342;2022-07-05T16:20:49;102223.09;;;23.40;84.99
53889;BME280;41337;51.400;-2.342;2022-07-05T16:25:50;102226.31;;;23.20;84.94
53889;BME280;41337;51.400;-2.342;2022-07-05T16:30:56;102220.75;;;22.95;86.72
53889;BME280;41337;51.400;-2.342;2022-07-05T16:35:57;102229.63;;;22.61;93.29
53889;BME280;41337;51.400;-2.342;2022-07-05T16:40:58;102220.16;;;22.13;100.00
53889;BME280;41337;51.400;-2.342;2022-07-05T16:45:59;102224.59;;;22.12;100.00
53889;BME280;41337;51.400;-2.342;2022-07-05T16:51:10;102226.69;;;21.98;100.00
53889;BME280;41337;51.400;-2.342;2022-07-05T16:56:15;102231.16;;;21.57;100.00
53889;BME280;41337;51.400;-2.342;2022-07-05T17:01:17;102217.75;;;21.19;100.00
53889;BME280;41337;51.400;-2.342;2022-07-05T17:06:19;102220.50;;;21.13;100.00
53889;BME280;41337;51.400;-2.342;2022-07-05T17:11:20;102224.09;;;21.11;100.00
53889;BME280;41337;51.400;-2.342;2022-07-05T17:16:25;102229.56;;;21.48;100.00
53889;BME280;41337;51.400;-2.342;2022-07-05T17:21:27;102228.31;;;22.05;100.00
53889;BME280;41337;51.400;-2.342;2022-07-05T17:26:28;102230.78;;;22.13;100.00
53889;BME280;41337;51.400;-2.342;2022-07-05T17:31:29;102230.56;;;22.60;100.00
53889;BME280;41337;51.400;-2.342;2022-07-05T17:36:30;102222.28;;;22.70;100.00
53889;BME280;41337;51.400;-2.342;2022-07-05T17:41:34;102227.03;;;22.59;100.00
53889;BME280;41337;51.400;-2.342;2022-07-05T17:46:35;102225.16;;;22.27;100.00
53889;BME280;41337;51.400;-2.342;2022-07-05T17:51:36;102231.81;;;22.07;100.00
53889;BME280;41337;51.400;-2.342;2022-07-05T17:56:36;102223.56;;;21.79;100.00
53889;BME280;41337;51.400;-2.342;2022-07-05T18:01:37;102228.06;;;21.77;100.00
53889;BME280;41337;51.400;-2.342;2022-07-05T18:06:38;102230.72;;;21.75;100.00
53889;BME280;41337;51.400;-2.342;2022-07-05T18:11:39;102231.28;;;21.91;100.00
53889;BME280;41337;51.400;-2.342;2022-07-05T18:16:40;102231.69;;;22.12;100.00
53889;BME280;41337;51.400;-2.342;2022-07-05T18:21:41;102228.69;;;22.26;100.00
53889;BME280;41337;51.400;-2.342;2022-07-05T18:26:42;102241.91;;;22.30;100.00
53889;BME280;41337;51.400;-2.342;2022-07-05T18:31:46;102238.16;;;22.73;100.00
53889;BME280;41337;51.400;-2.342;2022-07-05T18:36:47;102237.81;;;23.20;99.43
53889;BME280;41337;51.400;-2.342;2022-07-05T18:41:48;102234.34;;;23.78;92.66
53889;BME280;41337;51.400;-2.342;2022-07-05T18:46:49;102235.09;;;23.53;87.19
53889;BME280;41337;51.400;-2.342;2022-07-05T18:51:51;102241.47;;;23.16;92.99
53889;BME280;41337;51.400;-2.342;2022-07-05T18:56:51;102237.50;;;22.64;97.65
53889;BME280;41337;51.400;-2.342;2022-07-05T19:01:52;102245.00;;;22.49;96.91
53889;BME280;41337;51.400;-2.342;2022-07-05T19:06:54;102245.16;;;22.03;97.58
53889;BME280;41337;51.400;-2.342;2022-07-05T19:12:17;102244.31;;;21.61;99.00
53889;BME280;41337;51.400;-2.342;2022-07-05T19:17:36;102250.97;;;21.37;98.86
53889;BME280;41337;51.400;-2.342;2022-07-05T19:22:37;102251.28;;;21.22;100.00
53889;BME280;41337;51.400;-2.342;2022-07-05T19:27:39;102261.97;;;21.16;100.00
53889;BME280;41337;51.400;-2.342;2022-07-05T19:32:40;102254.84;;;21.19;100.00
53889;BME280;41337;51.400;-2.342;2022-07-05T19:37:47;102260.78;;;21.32;94.89
53889;BME280;41337;51.400;-2.342;2022-07-05T19:42:49;102266.81;;;20.92;100.00
53889;BME280;41337;51.400;-2.342;2022-07-05T19:47:50;102266.06;;;20.84;100.00
53889;BME280;41337;51.400;-2.342;2022-07-05T19:52:51;102269.75;;;20.77;100.00
53889;BME280;41337;51.400;-2.342;2022-07-05T19:57:57;102266.94;;;20.86;95.73
53889;BME280;41337;51.400;-2.342;2022-07-05T20:02:58;102284.09;;;20.63;94.68
53889;BME280;41337;51.400;-2.342;2022-07-05T20:07:59;102290.38;;;20.54;95.94
53889;BME280;41337;51.400;-2.342;2022-07-05T20:13:00;102293.25;;;20.41;96.31
53889;BME280;41337;51.400;-2.342;2022-07-05T20:18:01;102305.03;;;20.18;97.42
53889;BME280;41337;51.400;-2.342;2022-07-05T20:23:28;102312.25;;;20.07;99.49
53889;BME280;41337;51.400;-2.342;2022-07-05T20:28:32;102300.13;;;19.90;100.00
53889;BME280;41337;51.400;-2.342;2022-07-05T20:33:36;102317.06;;;19.75;100.00
53889;BME280;41337;51.400;-2.342;2022-07-05T20:38:37;102324.22;;;19.62;100.00
53889;BME280;41337;51.400;-2.342;2022-07-05T20:43:38;102334.31;;;19.26;100.00
53889;BME280;41337;51.400;-2.342;2022-07-05T20:48:38;102351.19;;;19.10;100.00
53889;BME280;41337;51.400;-2.342;2022-07-05T20:53:39;102356.69;;;18.84;100.00
53889;BME280;41337;51.400;-2.342;2022-07-05T20:58:40;102361.16;;;18.66;100.00
53889;BME280;41337;51.400;-2.342;2022-07-05T21:03:41;102360.34;;;18.58;100.00
53889;BME280;41337;51.400;-2.342;2022-07-05T21:08:42;102376.34;;;18.29;100.00
53889;BME280;41337;51.400;-2.342;2022-07-05T21:13:42;102371.13;;;18.16;100.00
53889;BME280;41337;51.400;-2.342;2022-07-05T21:18:43;102377.38;;;18.00;100.00
53889;BME280;41337;51.400;-2.342;2022-07-05T21:23:44;102376.50;;;17.84;100.00
53889;BME280;41337;51.400;-2.342;2022-07-05T21:28:45;102384.44;;;17.70;100.00
53889;BME280;41337;51.400;-2.342;2022-07-05T21:33:51;102392.38;;;17.55;100.00
53889;BME280;41337;51.400;-2.342;2022-07-05T21:38:52;102399.41;;;17.47;100.00
53889;BME280;41337;51.400;-2.342;2022-07-05T21:43:53;102407.31;;;17.36;100.00
53889;BME280;41337;51.400;-2.342;2022-07-05T21:48:55;102404.69;;;17.20;100.00
53889;BME280;41337;51.400;-2.342;2022-07-05T21:53:57;102406.44;;;17.08;100.00
53889;BME280;41337;51.400;-2.342;2022-07-05T21:58:58;102420.50;;;16.97;100.00
53889;BME280;41337;51.400;-2.342;2022-07-05T22:04:17;102420.41;;;16.69;100.00
53889;BME280;41337;51.400;-2.342;2022-07-05T22:09:35;102414.22;;;16.55;100.00
53889;BME280;41337;51.400;-2.342;2022-07-05T22:14:37;102418.53;;;16.38;100.00
53889;BME280;41337;51.400;-2.342;2022-07-05T22:19:43;102424.59;;;16.18;100.00
53889;BME280;41337;51.400;-2.342;2022-07-05T22:24:47;102432.44;;;16.07;100.00
53889;BME280;41337;51.400;-2.342;2022-07-05T22:29:48;102428.81;;;15.90;100.00
53889;BME280;41337;51.400;-2.342;2022-07-05T22:34:49;102426.91;;;15.70;100.00
53889;BME280;41337;51.400;-2.342;2022-07-05T22:39:50;102435.63;;;15.60;100.00
53889;BME280;41337;51.400;-2.342;2022-07-05T22:44:55;102436.44;;;15.56;100.00
53889;BME280;41337;51.400;-2.342;2022-07-05T22:49:56;102449.56;;;15.51;100.00
53889;BME280;41337;51.400;-2.342;2022-07-05T22:55:00;102451.22;;;15.38;100.00
53889;BME280;41337;51.400;-2.342;2022-07-05T23:00:00;102446.75;;;15.31;100.00
53889;BME280;41337;51.400;-2.342;2022-07-05T23:05:01;102438.84;;;15.23;100.00
53889;BME280;41337;51.400;-2.342;2022-07-05T23:10:02;102432.63;;;15.18;100.00
53889;BME280;41337;51.400;-2.342;2022-07-05T23:15:03;102440.44;;;15.09;100.00
53889;BME280;41337;51.400;-2.342;2022-07-05T23:20:11;102440.28;;;14.94;100.00
53889;BME280;41337;51.400;-2.342;2022-07-05T23:25:12;102439.34;;;14.87;100.00
53889;BME280;41337;51.400;-2.342;2022-07-05T23:30:13;102435.72;;;14.76;100.00
53889;BME280;41337;51.400;-2.342;2022-07-05T23:35:13;102438.28;;;14.68;100.00
53889;BME280;41337;51.400;-2.342;2022-07-05T23:40:14;102434.56;;;14.54;100.00
53889;BME280;41337;51.400;-2.342;2022-07-05T23:45:15;102436.28;;;14.48;100.00
53889;BME280;41337;51.400;-2.342;2022-07-05T23:50:16;102439.59;;;14.34;100.00
53889;BME280;41337;51.400;-2.342;2022-07-05T23:55:17;102446.47;;;14.27;100.00
